sensor_id;sensor_type;location;lat;lon;timestamp;P1;durP1;ratioP1;P2;durP2;ratioP2
58681;SDS011;44460;40.162;18.294;2022-10-16T00:00:28;27.13;;;14.43;;
58681;SDS011;44460;40.162;18.294;2022-10-16T00:02:53;21.65;;;13.25;;
58681;SDS011;44460;40.162;18.294;2022-10-16T00:05:19;25.13;;;14.10;;
58681;SDS011;44460;40.162;18.294;2022-10-16T00:07:45;23.23;;;13.98;;
58681;SDS011;44460;40.162;18.294;2022-10-16T00:10:10;25.70;;;14.63;;
58681;SDS011;44460;40.162;18.294;2022-10-16T00:12:35;25.70;;;14.20;;
58681;SDS011;44460;40.162;18.294;2022-10-16T00:15:01;24.25;;;14.70;;
58681;SDS011;44460;40.162;18.294;2022-10-16T00:17:27;23.08;;;15.32;;
58681;SDS011;44460;40.162;18.294;2022-10-16T00:19:52;28.15;;;15.45;;
58681;SDS011;44460;40.162;18.294;2022-10-16T00:22:18;21.35;;;15.25;;
58681;SDS011;44460;40.162;18.294;2022-10-16T00:24:43;26.90;;;15.50;;
58681;SDS011;44460;40.162;18.294;2022-10-16T00:27:08;21.33;;;14.43;;
58681;SDS011;44460;40.162;18.294;2022-10-16T00:29:34;24.92;;;15.73;;
58681;SDS011;44460;40.162;18.294;2022-10-16T00:31:59;25.38;;;16.45;;
58681;SDS011;44460;40.162;18.294;2022-10-16T00:34:25;21.83;;;15.35;;
58681;SDS011;44460;40.162;18.294;2022-10-16T00:36:50;24.52;;;16.25;;
58681;SDS011;44460;40.162;18.294;2022-10-16T00:39:16;28.27;;;16.80;;
58681;SDS011;44460;40.162;18.294;2022-10-16T00:41:41;26.98;;;16.00;;
58681;SDS011;44460;40.162;18.294;2022-10-16T00:46:50;25.55;;;18.35;;
58681;SDS011;44460;40.162;18.294;2022-10-16T00:49:16;24.30;;;16.75;;
58681;SDS011;44460;40.162;18.294;2022-10-16T00:51:47;27.42;;;18.08;;
58681;SDS011;44460;40.162;18.294;2022-10-16T00:54:16;29.38;;;18.48;;
58681;SDS011;44460;40.162;18.294;2022-10-16T00:56:43;30.60;;;20.25;;
58681;SDS011;44460;40.162;18.294;2022-10-16T00:59:16;30.33;;;19.50;;
58681;SDS011;44460;40.162;18.294;2022-10-16T01:01:41;29.20;;;19.80;;
58681;SDS011;44460;40.162;18.294;2022-10-16T01:04:07;32.85;;;20.65;;
58681;SDS011;44460;40.162;18.294;2022-10-16T01:12:04;29.25;;;19.55;;
58681;SDS011;44460;40.162;18.294;2022-10-16T01:17:04;30.45;;;19.95;;
58681;SDS011;44460;40.162;18.294;2022-10-16T01:22:08;31.60;;;19.70;;
58681;SDS011;44460;40.162;18.294;2022-10-16T01:24:41;30.80;;;19.35;;
58681;SDS011;44460;40.162;18.294;2022-10-16T01:27:13;27.75;;;18.95;;
58681;SDS011;44460;40.162;18.294;2022-10-16T01:32:07;29.88;;;18.65;;
58681;SDS011;44460;40.162;18.294;2022-10-16T01:34:41;32.28;;;18.17;;
58681;SDS011;44460;40.162;18.294;2022-10-16T01:37:08;28.98;;;18.05;;
58681;SDS011;44460;40.162;18.294;2022-10-16T01:39:35;31.05;;;19.30;;
58681;SDS011;44460;40.162;18.294;2022-10-16T01:42:07;32.40;;;19.02;;
58681;SDS011;44460;40.162;18.294;2022-10-16T01:44:34;29.42;;;19.88;;
58681;SDS011;44460;40.162;18.294;2022-10-16T01:47:01;31.25;;;19.38;;
58681;SDS011;44460;40.162;18.294;2022-10-16T01:49:28;32.70;;;19.65;;
58681;SDS011;44460;40.162;18.294;2022-10-16T01:51:55;29.27;;;19.52;;
58681;SDS011;44460;40.162;18.294;2022-10-16T01:54:21;30.80;;;19.08;;
58681;SDS011;44460;40.162;18.294;2022-10-16T01:59:15;31.95;;;18.80;;
58681;SDS011;44460;40.162;18.294;2022-10-16T02:01:42;35.25;;;19.35;;
58681;SDS011;44460;40.162;18.294;2022-10-16T02:04:16;30.55;;;20.15;;
58681;SDS011;44460;40.162;18.294;2022-10-16T02:06:43;37.63;;;21.00;;
58681;SDS011;44460;40.162;18.294;2022-10-16T02:09:09;32.35;;;20.52;;
58681;SDS011;44460;40.162;18.294;2022-10-16T02:11:34;30.95;;;19.20;;
58681;SDS011;44460;40.162;18.294;2022-10-16T02:14:06;28.73;;;18.38;;
58681;SDS011;44460;40.162;18.294;2022-10-16T02:16:32;33.80;;;20.70;;
58681;SDS011;44460;40.162;18.294;2022-10-16T02:18:58;35.10;;;19.95;;
58681;SDS011;44460;40.162;18.294;2022-10-16T02:21:25;32.03;;;20.13;;
58681;SDS011;44460;40.162;18.294;2022-10-16T02:26:23;34.92;;;19.80;;
58681;SDS011;44460;40.162;18.294;2022-10-16T02:28:53;30.42;;;17.73;;
58681;SDS011;44460;40.162;18.294;2022-10-16T02:31:24;31.90;;;18.50;;
58681;SDS011;44460;40.162;18.294;2022-10-16T02:33:52;29.10;;;18.67;;
58681;SDS011;44460;40.162;18.294;2022-10-16T02:36:19;25.90;;;17.15;;
58681;SDS011;44460;40.162;18.294;2022-10-16T02:38:44;24.05;;;17.50;;
58681;SDS011;44460;40.162;18.294;2022-10-16T02:41:11;33.83;;;18.83;;
58681;SDS011;44460;40.162;18.294;2022-10-16T02:43:36;26.35;;;18.02;;
58681;SDS011;44460;40.162;18.294;2022-10-16T02:46:02;24.80;;;17.85;;
58681;SDS011;44460;40.162;18.294;2022-10-16T02:48:27;30.23;;;18.42;;
58681;SDS011;44460;40.162;18.294;2022-10-16T02:50:53;33.40;;;19.58;;
58681;SDS011;44460;40.162;18.294;2022-10-16T02:53:18;29.05;;;18.63;;
58681;SDS011;44460;40.162;18.294;2022-10-16T02:55:44;31.50;;;18.95;;
58681;SDS011;44460;40.162;18.294;2022-10-16T02:58:09;30.65;;;18.45;;
58681;SDS011;44460;40.162;18.294;2022-10-16T03:00:34;25.98;;;18.13;;
58681;SDS011;44460;40.162;18.294;2022-10-16T03:03:00;27.67;;;18.08;;
58681;SDS011;44460;40.162;18.294;2022-10-16T03:05:26;26.55;;;17.83;;
58681;SDS011;44460;40.162;18.294;2022-10-16T03:07:51;30.60;;;19.08;;
58681;SDS011;44460;40.162;18.294;2022-10-16T03:10:17;28.00;;;19.20;;
58681;SDS011;44460;40.162;18.294;2022-10-16T03:12:43;31.30;;;19.88;;
58681;SDS011;44460;40.162;18.294;2022-10-16T03:15:08;32.70;;;20.10;;
58681;SDS011;44460;40.162;18.294;2022-10-16T03:17:34;33.17;;;21.33;;
58681;SDS011;44460;40.162;18.294;2022-10-16T03:19:59;28.55;;;18.17;;
58681;SDS011;44460;40.162;18.294;2022-10-16T03:22:25;32.35;;;19.70;;
58681;SDS011;44460;40.162;18.294;2022-10-16T03:24:50;32.97;;;20.20;;
58681;SDS011;44460;40.162;18.294;2022-10-16T03:27:16;29.63;;;18.63;;
58681;SDS011;44460;40.162;18.294;2022-10-16T03:29:41;30.10;;;19.25;;
58681;SDS011;44460;40.162;18.294;2022-10-16T03:32:07;31.63;;;19.15;;
58681;SDS011;44460;40.162;18.294;2022-10-16T03:34:32;29.15;;;19.52;;
58681;SDS011;44460;40.162;18.294;2022-10-16T03:36:58;31.42;;;19.23;;
58681;SDS011;44460;40.162;18.294;2022-10-16T03:39:23;29.30;;;19.52;;
58681;SDS011;44460;40.162;18.294;2022-10-16T03:41:50;31.10;;;19.98;;
58681;SDS011;44460;40.162;18.294;2022-10-16T03:44:15;31.38;;;18.50;;
58681;SDS011;44460;40.162;18.294;2022-10-16T03:46:41;27.35;;;18.40;;
58681;SDS011;44460;40.162;18.294;2022-10-16T03:49:06;30.13;;;18.85;;
58681;SDS011;44460;40.162;18.294;2022-10-16T03:51:32;29.15;;;19.65;;
58681;SDS011;44460;40.162;18.294;2022-10-16T03:53:57;29.23;;;19.10;;
58681;SDS011;44460;40.162;18.294;2022-10-16T03:56:23;30.13;;;19.48;;
58681;SDS011;44460;40.162;18.294;2022-10-16T03:58:48;33.47;;;21.08;;
58681;SDS011;44460;40.162;18.294;2022-10-16T04:01:13;33.63;;;21.42;;
58681;SDS011;44460;40.162;18.294;2022-10-16T04:03:39;35.20;;;23.17;;
58681;SDS011;44460;40.162;18.294;2022-10-16T04:06:04;33.72;;;23.45;;
58681;SDS011;44460;40.162;18.294;2022-10-16T04:08:30;33.38;;;20.67;;
58681;SDS011;44460;40.162;18.294;2022-10-16T04:10:56;33.80;;;20.80;;
58681;SDS011;44460;40.162;18.294;2022-10-16T04:13:21;29.80;;;19.00;;
58681;SDS011;44460;40.162;18.294;2022-10-16T04:15:46;30.05;;;19.88;;
58681;SDS011;44460;40.162;18.294;2022-10-16T04:18:12;34.50;;;20.17;;
58681;SDS011;44460;40.162;18.294;2022-10-16T04:20:37;32.92;;;21.48;;
58681;SDS011;44460;40.162;18.294;2022-10-16T04:23:03;33.90;;;21.75;;
58681;SDS011;44460;40.162;18.294;2022-10-16T04:25:28;39.05;;;22.92;;
58681;SDS011;44460;40.162;18.294;2022-10-16T04:27:54;35.05;;;23.50;;
58681;SDS011;44460;40.162;18.294;2022-10-16T04:30:20;36.88;;;25.77;;
58681;SDS011;44460;40.162;18.294;2022-10-16T04:32:52;43.42;;;29.38;;
58681;SDS011;44460;40.162;18.294;2022-10-16T04:35:18;48.33;;;29.10;;
58681;SDS011;44460;40.162;18.294;2022-10-16T04:37:44;43.92;;;29.00;;
58681;SDS011;44460;40.162;18.294;2022-10-16T04:40:09;41.88;;;28.65;;
58681;SDS011;44460;40.162;18.294;2022-10-16T04:42:35;44.53;;;29.33;;
58681;SDS011;44460;40.162;18.294;2022-10-16T04:45:00;42.08;;;27.27;;
58681;SDS011;44460;40.162;18.294;2022-10-16T04:47:26;45.13;;;28.05;;
58681;SDS011;44460;40.162;18.294;2022-10-16T04:49:51;46.58;;;29.55;;
58681;SDS011;44460;40.162;18.294;2022-10-16T04:52:16;46.63;;;28.20;;
58681;SDS011;44460;40.162;18.294;2022-10-16T04:54:44;41.83;;;27.25;;
58681;SDS011;44460;40.162;18.294;2022-10-16T04:57:10;43.40;;;27.63;;
58681;SDS011;44460;40.162;18.294;2022-10-16T04:59:36;41.40;;;26.63;;
58681;SDS011;44460;40.162;18.294;2022-10-16T05:02:01;46.75;;;26.65;;
58681;SDS011;44460;40.162;18.294;2022-10-16T05:04:26;44.63;;;27.30;;
58681;SDS011;44460;40.162;18.294;2022-10-16T05:06:52;43.17;;;28.27;;
58681;SDS011;44460;40.162;18.294;2022-10-16T05:09:17;41.72;;;27.23;;
58681;SDS011;44460;40.162;18.294;2022-10-16T05:11:43;44.72;;;29.65;;
58681;SDS011;44460;40.162;18.294;2022-10-16T05:14:08;48.78;;;28.90;;
58681;SDS011;44460;40.162;18.294;2022-10-16T05:16:34;40.50;;;27.52;;
58681;SDS011;44460;40.162;18.294;2022-10-16T05:18:59;41.88;;;27.58;;
58681;SDS011;44460;40.162;18.294;2022-10-16T05:21:24;45.38;;;25.90;;
58681;SDS011;44460;40.162;18.294;2022-10-16T05:23:50;41.08;;;27.63;;
58681;SDS011;44460;40.162;18.294;2022-10-16T05:26:15;40.70;;;27.30;;
58681;SDS011;44460;40.162;18.294;2022-10-16T05:28:41;42.25;;;27.17;;
58681;SDS011;44460;40.162;18.294;2022-10-16T05:31:07;43.65;;;27.80;;
58681;SDS011;44460;40.162;18.294;2022-10-16T05:33:32;42.65;;;27.80;;
58681;SDS011;44460;40.162;18.294;2022-10-16T05:36:02;42.08;;;28.05;;
58681;SDS011;44460;40.162;18.294;2022-10-16T05:38:28;46.97;;;27.85;;
58681;SDS011;44460;40.162;18.294;2022-10-16T05:40:53;36.40;;;25.10;;
58681;SDS011;44460;40.162;18.294;2022-10-16T05:43:19;46.58;;;26.27;;
58681;SDS011;44460;40.162;18.294;2022-10-16T05:45:52;39.45;;;26.17;;
58681;SDS011;44460;40.162;18.294;2022-10-16T05:48:18;35.45;;;24.98;;
58681;SDS011;44460;40.162;18.294;2022-10-16T05:50:43;32.65;;;23.52;;
58681;SDS011;44460;40.162;18.294;2022-10-16T05:53:09;37.30;;;24.95;;
58681;SDS011;44460;40.162;18.294;2022-10-16T05:55:34;38.50;;;25.45;;
58681;SDS011;44460;40.162;18.294;2022-10-16T05:57:59;38.40;;;28.08;;
58681;SDS011;44460;40.162;18.294;2022-10-16T06:00:25;40.35;;;27.00;;
58681;SDS011;44460;40.162;18.294;2022-10-16T06:02:50;43.70;;;28.67;;
58681;SDS011;44460;40.162;18.294;2022-10-16T06:05:16;39.00;;;27.35;;
58681;SDS011;44460;40.162;18.294;2022-10-16T06:07:41;40.78;;;28.67;;
58681;SDS011;44460;40.162;18.294;2022-10-16T06:10:07;44.30;;;29.02;;
58681;SDS011;44460;40.162;18.294;2022-10-16T06:12:32;40.25;;;27.60;;
58681;SDS011;44460;40.162;18.294;2022-10-16T06:14:58;40.38;;;29.67;;
58681;SDS011;44460;40.162;18.294;2022-10-16T06:17:23;46.33;;;31.23;;
58681;SDS011;44460;40.162;18.294;2022-10-16T06:19:48;48.22;;;30.83;;
58681;SDS011;44460;40.162;18.294;2022-10-16T06:22:14;42.88;;;29.92;;
58681;SDS011;44460;40.162;18.294;2022-10-16T06:24:39;45.35;;;30.83;;
58681;SDS011;44460;40.162;18.294;2022-10-16T06:27:05;45.95;;;31.35;;
58681;SDS011;44460;40.162;18.294;2022-10-16T06:29:30;44.83;;;32.42;;
58681;SDS011;44460;40.162;18.294;2022-10-16T06:31:55;44.72;;;31.25;;
58681;SDS011;44460;40.162;18.294;2022-10-16T06:34:21;48.28;;;34.40;;
58681;SDS011;44460;40.162;18.294;2022-10-16T06:36:46;46.50;;;33.65;;
58681;SDS011;44460;40.162;18.294;2022-10-16T06:39:12;45.55;;;34.78;;
58681;SDS011;44460;40.162;18.294;2022-10-16T06:41:37;52.22;;;34.10;;
58681;SDS011;44460;40.162;18.294;2022-10-16T06:44:14;43.45;;;32.22;;
58681;SDS011;44460;40.162;18.294;2022-10-16T06:46:39;42.83;;;32.13;;
58681;SDS011;44460;40.162;18.294;2022-10-16T06:49:04;49.10;;;32.72;;
58681;SDS011;44460;40.162;18.294;2022-10-16T06:51:30;51.10;;;30.80;;
58681;SDS011;44460;40.162;18.294;2022-10-16T06:53:57;42.33;;;31.37;;
58681;SDS011;44460;40.162;18.294;2022-10-16T06:56:23;41.33;;;30.85;;
58681;SDS011;44460;40.162;18.294;2022-10-16T06:58:49;41.22;;;31.58;;
58681;SDS011;44460;40.162;18.294;2022-10-16T07:01:15;43.17;;;30.00;;
58681;SDS011;44460;40.162;18.294;2022-10-16T07:03:41;39.47;;;28.95;;
58681;SDS011;44460;40.162;18.294;2022-10-16T07:06:08;36.00;;;27.83;;
58681;SDS011;44460;40.162;18.294;2022-10-16T07:08:34;38.13;;;27.95;;
58681;SDS011;44460;40.162;18.294;2022-10-16T07:11:01;38.50;;;26.92;;
58681;SDS011;44460;40.162;18.294;2022-10-16T07:13:26;34.08;;;26.83;;
58681;SDS011;44460;40.162;18.294;2022-10-16T07:15:52;36.58;;;27.08;;
58681;SDS011;44460;40.162;18.294;2022-10-16T07:18:17;35.00;;;26.48;;
58681;SDS011;44460;40.162;18.294;2022-10-16T07:20:43;38.60;;;30.10;;
58681;SDS011;44460;40.162;18.294;2022-10-16T07:23:08;43.80;;;26.15;;
58681;SDS011;44460;40.162;18.294;2022-10-16T07:25:34;32.50;;;25.55;;
58681;SDS011;44460;40.162;18.294;2022-10-16T07:27:59;37.50;;;25.38;;
58681;SDS011;44460;40.162;18.294;2022-10-16T07:30:25;33.95;;;26.50;;
58681;SDS011;44460;40.162;18.294;2022-10-16T07:32:50;31.23;;;24.75;;
58681;SDS011;44460;40.162;18.294;2022-10-16T07:35:16;31.15;;;24.88;;
58681;SDS011;44460;40.162;18.294;2022-10-16T07:37:44;29.80;;;23.23;;
58681;SDS011;44460;40.162;18.294;2022-10-16T07:40:09;30.63;;;24.25;;
58681;SDS011;44460;40.162;18.294;2022-10-16T07:42:35;29.98;;;23.98;;
58681;SDS011;44460;40.162;18.294;2022-10-16T07:45:00;31.70;;;22.65;;
58681;SDS011;44460;40.162;18.294;2022-10-16T07:47:25;29.73;;;22.58;;
58681;SDS011;44460;40.162;18.294;2022-10-16T07:49:51;30.65;;;22.33;;
58681;SDS011;44460;40.162;18.294;2022-10-16T07:52:16;28.58;;;23.05;;
58681;SDS011;44460;40.162;18.294;2022-10-16T07:54:42;29.13;;;22.35;;
58681;SDS011;44460;40.162;18.294;2022-10-16T07:57:07;28.02;;;18.70;;
58681;SDS011;44460;40.162;18.294;2022-10-16T07:59:33;25.88;;;19.48;;
58681;SDS011;44460;40.162;18.294;2022-10-16T08:01:58;24.05;;;17.35;;
58681;SDS011;44460;40.162;18.294;2022-10-16T08:04:23;20.85;;;14.70;;
58681;SDS011;44460;40.162;18.294;2022-10-16T08:06:49;29.42;;;16.98;;
58681;SDS011;44460;40.162;18.294;2022-10-16T08:09:14;18.50;;;14.35;;
58681;SDS011;44460;40.162;18.294;2022-10-16T08:11:40;20.20;;;13.55;;
58681;SDS011;44460;40.162;18.294;2022-10-16T08:14:05;17.75;;;13.43;;
58681;SDS011;44460;40.162;18.294;2022-10-16T08:16:31;22.08;;;15.27;;
58681;SDS011;44460;40.162;18.294;2022-10-16T08:18:56;22.00;;;16.10;;
58681;SDS011;44460;40.162;18.294;2022-10-16T08:21:22;22.50;;;16.55;;
58681;SDS011;44460;40.162;18.294;2022-10-16T08:23:50;30.00;;;18.20;;
58681;SDS011;44460;40.162;18.294;2022-10-16T08:26:16;26.55;;;17.50;;
58681;SDS011;44460;40.162;18.294;2022-10-16T08:28:41;20.83;;;15.27;;
58681;SDS011;44460;40.162;18.294;2022-10-16T08:31:13;18.75;;;13.00;;
58681;SDS011;44460;40.162;18.294;2022-10-16T08:33:40;19.83;;;13.00;;
58681;SDS011;44460;40.162;18.294;2022-10-16T08:36:06;19.48;;;12.55;;
58681;SDS011;44460;40.162;18.294;2022-10-16T08:38:32;19.67;;;13.13;;
58681;SDS011;44460;40.162;18.294;2022-10-16T08:43:55;19.88;;;13.00;;
58681;SDS011;44460;40.162;18.294;2022-10-16T08:46:26;18.55;;;13.70;;
58681;SDS011;44460;40.162;18.294;2022-10-16T08:48:56;24.35;;;15.02;;
58681;SDS011;44460;40.162;18.294;2022-10-16T08:51:27;24.55;;;15.07;;
58681;SDS011;44460;40.162;18.294;2022-10-16T08:56:20;17.05;;;12.75;;
58681;SDS011;44460;40.162;18.294;2022-10-16T08:58:46;16.42;;;11.13;;
58681;SDS011;44460;40.162;18.294;2022-10-16T09:01:14;20.02;;;12.27;;
58681;SDS011;44460;40.162;18.294;2022-10-16T09:03:43;21.85;;;12.65;;
58681;SDS011;44460;40.162;18.294;2022-10-16T09:06:16;18.45;;;10.95;;
58681;SDS011;44460;40.162;18.294;2022-10-16T09:08:51;15.48;;;10.35;;
58681;SDS011;44460;40.162;18.294;2022-10-16T09:14:03;17.90;;;11.32;;
58681;SDS011;44460;40.162;18.294;2022-10-16T09:16:36;23.30;;;11.63;;
58681;SDS011;44460;40.162;18.294;2022-10-16T09:21:59;16.10;;;9.57;;
58681;SDS011;44460;40.162;18.294;2022-10-16T09:24:25;14.30;;;8.95;;
58681;SDS011;44460;40.162;18.294;2022-10-16T09:26:52;11.95;;;8.60;;
58681;SDS011;44460;40.162;18.294;2022-10-16T09:29:19;17.80;;;9.45;;
58681;SDS011;44460;40.162;18.294;2022-10-16T09:31:51;13.90;;;8.32;;
58681;SDS011;44460;40.162;18.294;2022-10-16T09:36:44;15.30;;;9.18;;
58681;SDS011;44460;40.162;18.294;2022-10-16T09:39:10;15.63;;;9.05;;
58681;SDS011;44460;40.162;18.294;2022-10-16T09:41:37;14.75;;;9.07;;
58681;SDS011;44460;40.162;18.294;2022-10-16T09:44:04;13.07;;;8.75;;
58681;SDS011;44460;40.162;18.294;2022-10-16T09:46:37;17.00;;;8.52;;
58681;SDS011;44460;40.162;18.294;2022-10-16T09:49:16;13.40;;;8.85;;
58681;SDS011;44460;40.162;18.294;2022-10-16T09:51:43;16.10;;;8.57;;
58681;SDS011;44460;40.162;18.294;2022-10-16T09:56:34;15.82;;;9.85;;
58681;SDS011;44460;40.162;18.294;2022-10-16T09:59:11;15.68;;;9.27;;
58681;SDS011;44460;40.162;18.294;2022-10-16T10:01:38;16.98;;;9.82;;
58681;SDS011;44460;40.162;18.294;2022-10-16T10:04:04;16.93;;;10.17;;
58681;SDS011;44460;40.162;18.294;2022-10-16T10:06:31;15.38;;;9.27;;
58681;SDS011;44460;40.162;18.294;2022-10-16T10:09:04;20.80;;;9.55;;
58681;SDS011;44460;40.162;18.294;2022-10-16T10:12:04;13.85;;;9.73;;
58681;SDS011;44460;40.162;18.294;2022-10-16T10:14:38;15.52;;;9.48;;
58681;SDS011;44460;40.162;18.294;2022-10-16T10:19:36;17.30;;;9.13;;
58681;SDS011;44460;40.162;18.294;2022-10-16T10:22:12;16.00;;;9.43;;
58681;SDS011;44460;40.162;18.294;2022-10-16T10:24:38;13.65;;;9.73;;
58681;SDS011;44460;40.162;18.294;2022-10-16T10:27:14;15.20;;;10.13;;
58681;SDS011;44460;40.162;18.294;2022-10-16T10:32:23;17.85;;;10.40;;
58681;SDS011;44460;40.162;18.294;2022-10-16T10:35:07;14.70;;;10.33;;
58681;SDS011;44460;40.162;18.294;2022-10-16T10:37:46;15.40;;;9.60;;
58681;SDS011;44460;40.162;18.294;2022-10-16T10:42:49;14.65;;;9.40;;
58681;SDS011;44460;40.162;18.294;2022-10-16T10:50:12;14.70;;;10.20;;
58681;SDS011;44460;40.162;18.294;2022-10-16T10:55:25;18.05;;;10.75;;
58681;SDS011;44460;40.162;18.294;2022-10-16T11:00:28;13.50;;;10.20;;
58681;SDS011;44460;40.162;18.294;2022-10-16T11:05:28;17.83;;;12.50;;
58681;SDS011;44460;40.162;18.294;2022-10-16T11:15:40;16.23;;;11.80;;
58681;SDS011;44460;40.162;18.294;2022-10-16T11:18:08;17.33;;;12.00;;
58681;SDS011;44460;40.162;18.294;2022-10-16T11:20:52;15.85;;;11.48;;
58681;SDS011;44460;40.162;18.294;2022-10-16T11:26:04;16.45;;;11.35;;
58681;SDS011;44460;40.162;18.294;2022-10-16T11:28:36;17.17;;;12.70;;
58681;SDS011;44460;40.162;18.294;2022-10-16T11:31:08;18.85;;;13.32;;
58681;SDS011;44460;40.162;18.294;2022-10-16T11:36:35;18.73;;;10.77;;
58681;SDS011;44460;40.162;18.294;2022-10-16T11:47:33;17.67;;;12.32;;
58681;SDS011;44460;40.162;18.294;2022-10-16T11:49:32;20.95;;;13.23;;
58681;SDS011;44460;40.162;18.294;2022-10-16T11:57:09;19.42;;;11.73;;
58681;SDS011;44460;40.162;18.294;2022-10-16T11:59:44;15.85;;;11.35;;
58681;SDS011;44460;40.162;18.294;2022-10-16T12:04:43;17.55;;;12.38;;
58681;SDS011;44460;40.162;18.294;2022-10-16T12:07:13;19.75;;;13.57;;
58681;SDS011;44460;40.162;18.294;2022-10-16T12:09:40;20.35;;;13.57;;
58681;SDS011;44460;40.162;18.294;2022-10-16T12:15:00;20.90;;;12.98;;
58681;SDS011;44460;40.162;18.294;2022-10-16T12:17:27;22.13;;;14.23;;
58681;SDS011;44460;40.162;18.294;2022-10-16T12:20:21;18.55;;;13.75;;
58681;SDS011;44460;40.162;18.294;2022-10-16T12:25:24;21.67;;;14.15;;
58681;SDS011;44460;40.162;18.294;2022-10-16T12:30:28;21.08;;;14.18;;
58681;SDS011;44460;40.162;18.294;2022-10-16T12:33:17;18.77;;;13.38;;
58681;SDS011;44460;40.162;18.294;2022-10-16T12:35:45;20.38;;;14.10;;
58681;SDS011;44460;40.162;18.294;2022-10-16T12:38:15;23.83;;;14.98;;
58681;SDS011;44460;40.162;18.294;2022-10-16T12:40:41;21.52;;;15.40;;
58681;SDS011;44460;40.162;18.294;2022-10-16T12:43:49;24.08;;;15.40;;
58681;SDS011;44460;40.162;18.294;2022-10-16T12:46:03;20.67;;;15.15;;
58681;SDS011;44460;40.162;18.294;2022-10-16T12:48:29;22.23;;;14.48;;
58681;SDS011;44460;40.162;18.294;2022-10-16T12:50:55;19.03;;;13.07;;
58681;SDS011;44460;40.162;18.294;2022-10-16T12:53:23;16.58;;;12.95;;
58681;SDS011;44460;40.162;18.294;2022-10-16T13:00:59;16.80;;;12.25;;
58681;SDS011;44460;40.162;18.294;2022-10-16T13:06:04;24.33;;;13.45;;
58681;SDS011;44460;40.162;18.294;2022-10-16T13:11:02;17.38;;;11.73;;
58681;SDS011;44460;40.162;18.294;2022-10-16T13:16:09;18.83;;;11.80;;
58681;SDS011;44460;40.162;18.294;2022-10-16T13:21:32;14.05;;;8.77;;
58681;SDS011;44460;40.162;18.294;2022-10-16T13:28:59;9.68;;;5.60;;
58681;SDS011;44460;40.162;18.294;2022-10-16T13:31:25;8.60;;;5.33;;
58681;SDS011;44460;40.162;18.294;2022-10-16T13:33:51;10.02;;;5.15;;
58681;SDS011;44460;40.162;18.294;2022-10-16T13:36:21;10.57;;;5.10;;
58681;SDS011;44460;40.162;18.294;2022-10-16T13:38:47;8.48;;;4.70;;
58681;SDS011;44460;40.162;18.294;2022-10-16T13:41:14;12.15;;;4.68;;
58681;SDS011;44460;40.162;18.294;2022-10-16T13:43:40;9.30;;;4.22;;
58681;SDS011;44460;40.162;18.294;2022-10-16T13:46:14;10.40;;;4.75;;
58681;SDS011;44460;40.162;18.294;2022-10-16T13:48:40;13.60;;;5.03;;
58681;SDS011;44460;40.162;18.294;2022-10-16T13:51:11;11.52;;;4.75;;
58681;SDS011;44460;40.162;18.294;2022-10-16T13:53:37;10.82;;;5.10;;
58681;SDS011;44460;40.162;18.294;2022-10-16T13:56:04;7.43;;;4.38;;
58681;SDS011;44460;40.162;18.294;2022-10-16T13:58:29;10.70;;;5.03;;
58681;SDS011;44460;40.162;18.294;2022-10-16T14:00:59;12.13;;;4.85;;
58681;SDS011;44460;40.162;18.294;2022-10-16T14:03:25;9.35;;;4.95;;
58681;SDS011;44460;40.162;18.294;2022-10-16T14:05:52;7.47;;;4.50;;
58681;SDS011;44460;40.162;18.294;2022-10-16T14:08:18;7.90;;;4.70;;
58681;SDS011;44460;40.162;18.294;2022-10-16T14:10:46;8.50;;;4.82;;
58681;SDS011;44460;40.162;18.294;2022-10-16T14:13:14;8.18;;;4.90;;
58681;SDS011;44460;40.162;18.294;2022-10-16T14:15:40;10.35;;;4.93;;
58681;SDS011;44460;40.162;18.294;2022-10-16T14:18:05;11.75;;;5.13;;
58681;SDS011;44460;40.162;18.294;2022-10-16T14:20:31;10.55;;;5.28;;
58681;SDS011;44460;40.162;18.294;2022-10-16T14:22:58;14.40;;;5.38;;
58681;SDS011;44460;40.162;18.294;2022-10-16T14:25:25;8.13;;;4.63;;
58681;SDS011;44460;40.162;18.294;2022-10-16T14:28:01;12.90;;;5.43;;
58681;SDS011;44460;40.162;18.294;2022-10-16T14:30:27;11.45;;;5.00;;
58681;SDS011;44460;40.162;18.294;2022-10-16T14:33:03;12.30;;;5.05;;
58681;SDS011;44460;40.162;18.294;2022-10-16T14:35:30;10.80;;;5.85;;
58681;SDS011;44460;40.162;18.294;2022-10-16T14:37:56;8.98;;;4.82;;
58681;SDS011;44460;40.162;18.294;2022-10-16T14:40:23;11.35;;;4.88;;
58681;SDS011;44460;40.162;18.294;2022-10-16T14:42:49;10.95;;;5.20;;
58681;SDS011;44460;40.162;18.294;2022-10-16T14:45:18;12.23;;;5.90;;
58681;SDS011;44460;40.162;18.294;2022-10-16T14:47:52;9.88;;;6.93;;
58681;SDS011;44460;40.162;18.294;2022-10-16T14:50:18;18.35;;;14.15;;
58681;SDS011;44460;40.162;18.294;2022-10-16T14:52:44;15.48;;;6.65;;
58681;SDS011;44460;40.162;18.294;2022-10-16T14:55:09;12.00;;;5.85;;
58681;SDS011;44460;40.162;18.294;2022-10-16T14:57:35;8.57;;;4.68;;
58681;SDS011;44460;40.162;18.294;2022-10-16T15:00:02;19.42;;;6.18;;
58681;SDS011;44460;40.162;18.294;2022-10-16T15:02:29;12.85;;;6.15;;
58681;SDS011;44460;40.162;18.294;2022-10-16T15:04:55;15.63;;;6.13;;
58681;SDS011;44460;40.162;18.294;2022-10-16T15:07:21;11.68;;;5.65;;
58681;SDS011;44460;40.162;18.294;2022-10-16T15:09:46;9.52;;;5.63;;
58681;SDS011;44460;40.162;18.294;2022-10-16T15:12:12;10.95;;;5.68;;
58681;SDS011;44460;40.162;18.294;2022-10-16T15:14:37;9.43;;;5.20;;
58681;SDS011;44460;40.162;18.294;2022-10-16T15:17:03;8.35;;;5.30;;
58681;SDS011;44460;40.162;18.294;2022-10-16T15:19:28;8.13;;;5.38;;
58681;SDS011;44460;40.162;18.294;2022-10-16T15:21:54;8.43;;;5.65;;
58681;SDS011;44460;40.162;18.294;2022-10-16T15:24:19;9.70;;;5.97;;
58681;SDS011;44460;40.162;18.294;2022-10-16T15:26:44;10.02;;;6.03;;
58681;SDS011;44460;40.162;18.294;2022-10-16T15:29:14;8.63;;;5.65;;
58681;SDS011;44460;40.162;18.294;2022-10-16T15:31:39;12.65;;;5.68;;
58681;SDS011;44460;40.162;18.294;2022-10-16T15:34:08;9.00;;;5.68;;
58681;SDS011;44460;40.162;18.294;2022-10-16T15:36:35;10.43;;;5.68;;
58681;SDS011;44460;40.162;18.294;2022-10-16T15:41:27;9.63;;;5.95;;
58681;SDS011;44460;40.162;18.294;2022-10-16T15:43:52;13.82;;;5.75;;
58681;SDS011;44460;40.162;18.294;2022-10-16T15:46:20;13.52;;;6.10;;
58681;SDS011;44460;40.162;18.294;2022-10-16T15:48:47;12.55;;;6.30;;
58681;SDS011;44460;40.162;18.294;2022-10-16T15:51:12;10.68;;;5.47;;
58681;SDS011;44460;40.162;18.294;2022-10-16T15:53:38;10.73;;;5.80;;
58681;SDS011;44460;40.162;18.294;2022-10-16T15:56:04;10.85;;;5.85;;
58681;SDS011;44460;40.162;18.294;2022-10-16T15:58:29;14.45;;;7.45;;
58681;SDS011;44460;40.162;18.294;2022-10-16T16:00:58;10.32;;;6.25;;
58681;SDS011;44460;40.162;18.294;2022-10-16T16:03:26;9.57;;;6.10;;
58681;SDS011;44460;40.162;18.294;2022-10-16T16:05:52;12.18;;;6.65;;
58681;SDS011;44460;40.162;18.294;2022-10-16T16:08:17;9.88;;;5.82;;
58681;SDS011;44460;40.162;18.294;2022-10-16T16:10:43;10.13;;;6.07;;